sensor_id;sensor_type;location;lat;lon;timestamp;P1;durP1;ratioP1;P2;durP2;ratioP2
4290;SDS011;2159;50.906;7.152;2022-09-09T00:02:18;13.63;;;1.50;;
4290;SDS011;2159;50.906;7.152;2022-09-09T00:04:48;1.97;;;1.40;;
4290;SDS011;2159;50.906;7.152;2022-09-09T00:07:19;4.67;;;1.30;;
4290;SDS011;2159;50.906;7.152;2022-09-09T00:09:51;4.30;;;1.57;;
4290;SDS011;2159;50.906;7.152;2022-09-09T00:12:24;1.30;;;1.20;;
4290;SDS011;2159;50.906;7.152;2022-09-09T00:14:54;3.83;;;1.27;;
4290;SDS011;2159;50.906;7.152;2022-09-09T00:17:26;2.33;;;1.43;;
4290;SDS011;2159;50.906;7.152;2022-09-09T00:20:00;2.70;;;1.20;;
4290;SDS011;2159;50.906;7.152;2022-09-09T00:22:29;3.03;;;1.50;;
4290;SDS011;2159;50.906;7.152;2022-09-09T00:25:00;1.93;;;1.23;;
4290;SDS011;2159;50.906;7.152;2022-09-09T00:27:32;4.73;;;1.50;;
4290;SDS011;2159;50.906;7.152;2022-09-09T00:30:13;3.17;;;1.30;;
4290;SDS011;2159;50.906;7.152;2022-09-09T00:32:42;1.17;;;1.17;;
4290;SDS011;2159;50.906;7.152;2022-09-09T00:35:14;2.70;;;1.30;;
4290;SDS011;2159;50.906;7.152;2022-09-09T00:37:44;1.57;;;1.10;;
4290;SDS011;2159;50.906;7.152;2022-09-09T00:40:17;4.93;;;1.60;;
4290;SDS011;2159;50.906;7.152;2022-09-09T00:42:46;1.40;;;1.30;;
4290;SDS011;2159;50.906;7.152;2022-09-09T00:45:19;2.50;;;1.47;;
4290;SDS011;2159;50.906;7.152;2022-09-09T00:47:52;2.40;;;1.30;;
4290;SDS011;2159;50.906;7.152;2022-09-09T00:50:27;2.10;;;1.30;;
4290;SDS011;2159;50.906;7.152;2022-09-09T00:52:59;2.47;;;1.60;;
4290;SDS011;2159;50.906;7.152;2022-09-09T00:55:32;6.00;;;1.10;;
4290;SDS011;2159;50.906;7.152;2022-09-09T00:58:02;2.60;;;1.47;;
4290;SDS011;2159;50.906;7.152;2022-09-09T01:00:30;2.50;;;1.30;;
4290;SDS011;2159;50.906;7.152;2022-09-09T01:03:06;3.17;;;1.40;;
4290;SDS011;2159;50.906;7.152;2022-09-09T01:05:35;1.57;;;1.27;;
4290;SDS011;2159;50.906;7.152;2022-09-09T01:08:05;2.80;;;1.20;;
4290;SDS011;2159;50.906;7.152;2022-09-09T01:10:39;3.40;;;1.37;;
4290;SDS011;2159;50.906;7.152;2022-09-09T01:13:11;1.20;;;1.10;;
4290;SDS011;2159;50.906;7.152;2022-09-09T01:15:41;1.80;;;1.30;;
4290;SDS011;2159;50.906;7.152;2022-09-09T01:18:13;6.43;;;1.40;;
4290;SDS011;2159;50.906;7.152;2022-09-09T01:20:44;2.70;;;1.30;;
4290;SDS011;2159;50.906;7.152;2022-09-09T01:26:13;2.93;;;1.30;;
4290;SDS011;2159;50.906;7.152;2022-09-09T01:28:42;3.43;;;1.30;;
4290;SDS011;2159;50.906;7.152;2022-09-09T01:31:11;1.47;;;1.30;;
4290;SDS011;2159;50.906;7.152;2022-09-09T01:33:41;2.70;;;1.40;;
4290;SDS011;2159;50.906;7.152;2022-09-09T01:36:09;2.97;;;1.30;;
4290;SDS011;2159;50.906;7.152;2022-09-09T01:38:37;3.03;;;1.40;;
4290;SDS011;2159;50.906;7.152;2022-09-09T01:41:05;3.10;;;1.50;;
4290;SDS011;2159;50.906;7.152;2022-09-09T01:43:33;1.40;;;1.20;;
4290;SDS011;2159;50.906;7.152;2022-09-09T01:46:01;2.50;;;1.30;;
4290;SDS011;2159;50.906;7.152;2022-09-09T01:48:29;1.40;;;1.20;;
4290;SDS011;2159;50.906;7.152;2022-09-09T01:50:57;1.40;;;1.30;;
4290;SDS011;2159;50.906;7.152;2022-09-09T01:53:24;2.40;;;1.60;;
4290;SDS011;2159;50.906;7.152;2022-09-09T01:55:55;2.10;;;1.57;;
4290;SDS011;2159;50.906;7.152;2022-09-09T01:58:28;1.43;;;1.30;;
4290;SDS011;2159;50.906;7.152;2022-09-09T02:01:02;3.60;;;1.30;;
4290;SDS011;2159;50.906;7.152;2022-09-09T02:03:32;2.30;;;1.30;;
4290;SDS011;2159;50.906;7.152;2022-09-09T02:06:03;2.40;;;1.20;;
4290;SDS011;2159;50.906;7.152;2022-09-09T02:08:33;2.33;;;1.20;;
4290;SDS011;2159;50.906;7.152;2022-09-09T02:11:05;1.50;;;1.40;;
4290;SDS011;2159;50.906;7.152;2022-09-09T02:13:33;5.93;;;2.07;;
4290;SDS011;2159;50.906;7.152;2022-09-09T02:16:04;2.73;;;1.40;;
4290;SDS011;2159;50.906;7.152;2022-09-09T02:18:35;3.20;;;1.50;;
4290;SDS011;2159;50.906;7.152;2022-09-09T02:21:02;6.90;;;1.50;;
4290;SDS011;2159;50.906;7.152;2022-09-09T02:23:30;5.90;;;1.47;;
4290;SDS011;2159;50.906;7.152;2022-09-09T02:25:59;3.43;;;1.23;;
4290;SDS011;2159;50.906;7.152;2022-09-09T02:28:27;4.57;;;1.57;;
4290;SDS011;2159;50.906;7.152;2022-09-09T02:30:57;3.00;;;1.67;;
4290;SDS011;2159;50.906;7.152;2022-09-09T02:33:26;2.40;;;1.20;;
4290;SDS011;2159;50.906;7.152;2022-09-09T02:35:54;1.90;;;1.43;;
4290;SDS011;2159;50.906;7.152;2022-09-09T02:38:28;3.13;;;1.33;;
4290;SDS011;2159;50.906;7.152;2022-09-09T02:40:56;1.60;;;1.40;;
4290;SDS011;2159;50.906;7.152;2022-09-09T02:43:24;2.77;;;1.20;;
4290;SDS011;2159;50.906;7.152;2022-09-09T02:45:53;1.70;;;1.20;;
4290;SDS011;2159;50.906;7.152;2022-09-09T02:48:26;6.00;;;1.40;;
4290;SDS011;2159;50.906;7.152;2022-09-09T02:50:58;3.43;;;1.33;;
4290;SDS011;2159;50.906;7.152;2022-09-09T02:53:28;1.43;;;1.20;;
4290;SDS011;2159;50.906;7.152;2022-09-09T02:55:59;2.60;;;1.63;;
4290;SDS011;2159;50.906;7.152;2022-09-09T02:58:28;2.30;;;1.50;;
4290;SDS011;2159;50.906;7.152;2022-09-09T03:00:56;2.50;;;1.40;;
4290;SDS011;2159;50.906;7.152;2022-09-09T03:03:26;1.53;;;1.40;;
4290;SDS011;2159;50.906;7.152;2022-09-09T03:05:53;2.10;;;1.30;;
4290;SDS011;2159;50.906;7.152;2022-09-09T03:08:21;2.50;;;1.47;;
4290;SDS011;2159;50.906;7.152;2022-09-09T03:10:48;5.40;;;1.63;;
4290;SDS011;2159;50.906;7.152;2022-09-09T03:13:15;4.57;;;1.37;;
4290;SDS011;2159;50.906;7.152;2022-09-09T03:15:45;1.83;;;1.23;;
4290;SDS011;2159;50.906;7.152;2022-09-09T03:18:14;1.97;;;1.40;;
4290;SDS011;2159;50.906;7.152;2022-09-09T03:20:43;1.60;;;1.20;;
4290;SDS011;2159;50.906;7.152;2022-09-09T03:23:10;1.40;;;1.30;;
4290;SDS011;2159;50.906;7.152;2022-09-09T03:25:45;6.10;;;1.37;;
4290;SDS011;2159;50.906;7.152;2022-09-09T03:28:13;3.97;;;1.30;;
4290;SDS011;2159;50.906;7.152;2022-09-09T03:30:41;1.90;;;1.50;;
4290;SDS011;2159;50.906;7.152;2022-09-09T03:33:08;4.70;;;1.50;;
4290;SDS011;2159;50.906;7.152;2022-09-09T03:35:36;2.60;;;1.43;;
4290;SDS011;2159;50.906;7.152;2022-09-09T03:38:04;1.97;;;1.30;;
4290;SDS011;2159;50.906;7.152;2022-09-09T03:40:32;2.90;;;1.40;;
4290;SDS011;2159;50.906;7.152;2022-09-09T03:42:59;3.90;;;1.37;;
4290;SDS011;2159;50.906;7.152;2022-09-09T03:45:27;4.53;;;1.50;;
4290;SDS011;2159;50.906;7.152;2022-09-09T03:47:54;2.10;;;1.53;;
4290;SDS011;2159;50.906;7.152;2022-09-09T03:50:23;3.23;;;1.40;;
4290;SDS011;2159;50.906;7.152;2022-09-09T03:52:50;4.40;;;1.43;;
4290;SDS011;2159;50.906;7.152;2022-09-09T03:55:19;3.63;;;1.67;;
4290;SDS011;2159;50.906;7.152;2022-09-09T03:57:46;2.40;;;1.40;;
4290;SDS011;2159;50.906;7.152;2022-09-09T04:00:14;6.20;;;1.70;;
4290;SDS011;2159;50.906;7.152;2022-09-09T04:02:41;2.97;;;1.70;;
4290;SDS011;2159;50.906;7.152;2022-09-09T04:05:09;4.17;;;1.50;;
4290;SDS011;2159;50.906;7.152;2022-09-09T04:07:37;4.63;;;1.50;;
4290;SDS011;2159;50.906;7.152;2022-09-09T04:10:05;2.90;;;1.27;;
4290;SDS011;2159;50.906;7.152;2022-09-09T04:12:33;2.10;;;1.40;;
4290;SDS011;2159;50.906;7.152;2022-09-09T04:15:01;2.53;;;1.27;;
4290;SDS011;2159;50.906;7.152;2022-09-09T04:17:29;3.90;;;1.40;;
4290;SDS011;2159;50.906;7.152;2022-09-09T04:19:56;3.47;;;1.33;;
4290;SDS011;2159;50.906;7.152;2022-09-09T04:22:24;1.50;;;1.40;;
4290;SDS011;2159;50.906;7.152;2022-09-09T04:24:51;7.10;;;1.53;;
4290;SDS011;2159;50.906;7.152;2022-09-09T04:27:19;4.93;;;1.30;;
4290;SDS011;2159;50.906;7.152;2022-09-09T04:29:48;3.17;;;1.67;;
4290;SDS011;2159;50.906;7.152;2022-09-09T04:32:15;3.03;;;1.87;;
4290;SDS011;2159;50.906;7.152;2022-09-09T04:34:43;1.97;;;1.60;;
4290;SDS011;2159;50.906;7.152;2022-09-09T04:37:11;4.83;;;1.33;;
4290;SDS011;2159;50.906;7.152;2022-09-09T04:39:38;4.63;;;1.80;;
4290;SDS011;2159;50.906;7.152;2022-09-09T04:42:06;3.83;;;1.50;;
4290;SDS011;2159;50.906;7.152;2022-09-09T04:44:33;4.47;;;1.90;;
4290;SDS011;2159;50.906;7.152;2022-09-09T04:47:02;4.37;;;1.33;;
4290;SDS011;2159;50.906;7.152;2022-09-09T04:49:30;3.53;;;1.60;;
4290;SDS011;2159;50.906;7.152;2022-09-09T04:51:58;2.97;;;1.50;;
4290;SDS011;2159;50.906;7.152;2022-09-09T04:54:25;2.27;;;1.70;;
4290;SDS011;2159;50.906;7.152;2022-09-09T04:56:53;2.57;;;1.80;;
4290;SDS011;2159;50.906;7.152;2022-09-09T04:59:21;3.27;;;1.30;;
4290;SDS011;2159;50.906;7.152;2022-09-09T05:01:49;4.40;;;1.70;;
4290;SDS011;2159;50.906;7.152;2022-09-09T05:04:18;4.30;;;1.90;;
4290;SDS011;2159;50.906;7.152;2022-09-09T05:06:46;4.73;;;1.70;;
4290;SDS011;2159;50.906;7.152;2022-09-09T05:09:13;3.60;;;1.57;;
4290;SDS011;2159;50.906;7.152;2022-09-09T05:11:41;3.03;;;1.57;;
4290;SDS011;2159;50.906;7.152;2022-09-09T05:14:08;1.50;;;1.30;;
4290;SDS011;2159;50.906;7.152;2022-09-09T05:16:37;3.77;;;1.60;;
4290;SDS011;2159;50.906;7.152;2022-09-09T05:19:05;2.43;;;1.70;;
4290;SDS011;2159;50.906;7.152;2022-09-09T05:21:35;1.73;;;1.40;;
4290;SDS011;2159;50.906;7.152;2022-09-09T05:24:03;3.10;;;1.67;;
4290;SDS011;2159;50.906;7.152;2022-09-09T05:26:30;3.40;;;1.70;;
4290;SDS011;2159;50.906;7.152;2022-09-09T05:28:58;5.67;;;1.63;;
4290;SDS011;2159;50.906;7.152;2022-09-09T05:31:26;3.40;;;1.90;;
4290;SDS011;2159;50.906;7.152;2022-09-09T05:33:54;4.20;;;1.40;;
4290;SDS011;2159;50.906;7.152;2022-09-09T05:36:21;3.90;;;1.80;;
4290;SDS011;2159;50.906;7.152;2022-09-09T05:38:50;3.60;;;1.67;;
4290;SDS011;2159;50.906;7.152;2022-09-09T05:41:19;5.30;;;1.83;;
4290;SDS011;2159;50.906;7.152;2022-09-09T05:43:49;4.10;;;1.33;;
4290;SDS011;2159;50.906;7.152;2022-09-09T05:46:17;5.83;;;1.80;;
4290;SDS011;2159;50.906;7.152;2022-09-09T05:48:45;2.97;;;1.57;;
4290;SDS011;2159;50.906;7.152;2022-09-09T05:51:14;3.20;;;1.60;;
4290;SDS011;2159;50.906;7.152;2022-09-09T05:53:43;2.63;;;1.43;;
4290;SDS011;2159;50.906;7.152;2022-09-09T05:56:12;5.60;;;1.60;;
4290;SDS011;2159;50.906;7.152;2022-09-09T05:58:41;2.07;;;1.60;;
4290;SDS011;2159;50.906;7.152;2022-09-09T06:01:10;1.47;;;1.37;;
4290;SDS011;2159;50.906;7.152;2022-09-09T06:03:38;4.00;;;1.57;;
4290;SDS011;2159;50.906;7.152;2022-09-09T06:06:07;2.53;;;1.73;;
4290;SDS011;2159;50.906;7.152;2022-09-09T06:08:35;3.63;;;1.70;;
4290;SDS011;2159;50.906;7.152;2022-09-09T06:11:05;3.53;;;1.60;;
4290;SDS011;2159;50.906;7.152;2022-09-09T06:13:34;2.47;;;1.70;;
4290;SDS011;2159;50.906;7.152;2022-09-09T06:16:03;3.47;;;1.50;;
4290;SDS011;2159;50.906;7.152;2022-09-09T06:18:30;2.40;;;1.17;;
4290;SDS011;2159;50.906;7.152;2022-09-09T06:20:58;2.60;;;1.50;;
4290;SDS011;2159;50.906;7.152;2022-09-09T06:23:27;3.83;;;1.30;;
4290;SDS011;2159;50.906;7.152;2022-09-09T06:26:02;4.33;;;1.53;;
4290;SDS011;2159;50.906;7.152;2022-09-09T06:28:31;3.70;;;1.37;;
4290;SDS011;2159;50.906;7.152;2022-09-09T06:31:01;4.97;;;1.53;;
4290;SDS011;2159;50.906;7.152;2022-09-09T06:33:30;1.97;;;1.30;;
4290;SDS011;2159;50.906;7.152;2022-09-09T06:35:58;3.57;;;1.50;;
4290;SDS011;2159;50.906;7.152;2022-09-09T06:38:25;3.27;;;1.40;;
4290;SDS011;2159;50.906;7.152;2022-09-09T06:40:54;3.73;;;1.80;;
4290;SDS011;2159;50.906;7.152;2022-09-09T06:43:22;2.20;;;1.47;;
4290;SDS011;2159;50.906;7.152;2022-09-09T06:45:53;2.70;;;1.40;;
4290;SDS011;2159;50.906;7.152;2022-09-09T06:48:21;5.70;;;1.30;;
4290;SDS011;2159;50.906;7.152;2022-09-09T06:50:49;4.40;;;1.57;;
4290;SDS011;2159;50.906;7.152;2022-09-09T06:53:17;2.47;;;1.50;;
4290;SDS011;2159;50.906;7.152;2022-09-09T06:55:45;2.50;;;1.50;;
4290;SDS011;2159;50.906;7.152;2022-09-09T06:58:12;3.03;;;1.77;;
4290;SDS011;2159;50.906;7.152;2022-09-09T07:00:40;3.47;;;1.47;;
4290;SDS011;2159;50.906;7.152;2022-09-09T07:03:09;2.00;;;1.40;;
4290;SDS011;2159;50.906;7.152;2022-09-09T07:05:38;3.90;;;1.47;;
4290;SDS011;2159;50.906;7.152;2022-09-09T07:08:05;3.40;;;1.77;;
4290;SDS011;2159;50.906;7.152;2022-09-09T07:10:33;4.20;;;1.57;;
4290;SDS011;2159;50.906;7.152;2022-09-09T07:13:00;2.77;;;1.50;;
4290;SDS011;2159;50.906;7.152;2022-09-09T07:15:28;3.67;;;1.67;;
4290;SDS011;2159;50.906;7.152;2022-09-09T07:18:00;2.10;;;1.30;;
4290;SDS011;2159;50.906;7.152;2022-09-09T07:20:27;4.70;;;1.63;;
4290;SDS011;2159;50.906;7.152;2022-09-09T07:22:56;11.43;;;1.97;;
4290;SDS011;2159;50.906;7.152;2022-09-09T07:25:24;5.60;;;1.90;;
4290;SDS011;2159;50.906;7.152;2022-09-09T07:27:52;3.03;;;2.07;;
4290;SDS011;2159;50.906;7.152;2022-09-09T07:30:20;2.53;;;1.50;;
4290;SDS011;2159;50.906;7.152;2022-09-09T07:32:53;3.33;;;1.53;;
4290;SDS011;2159;50.906;7.152;2022-09-09T07:35:23;3.60;;;1.23;;
4290;SDS011;2159;50.906;7.152;2022-09-09T07:37:50;2.93;;;1.47;;
4290;SDS011;2159;50.906;7.152;2022-09-09T07:40:19;4.20;;;1.60;;
4290;SDS011;2159;50.906;7.152;2022-09-09T07:42:47;3.20;;;1.50;;
4290;SDS011;2159;50.906;7.152;2022-09-09T07:45:15;8.17;;;1.70;;
4290;SDS011;2159;50.906;7.152;2022-09-09T07:47:43;6.80;;;2.40;;
4290;SDS011;2159;50.906;7.152;2022-09-09T07:50:10;6.83;;;1.20;;
4290;SDS011;2159;50.906;7.152;2022-09-09T07:52:38;2.53;;;1.30;;
4290;SDS011;2159;50.906;7.152;2022-09-09T07:55:05;5.03;;;1.60;;
4290;SDS011;2159;50.906;7.152;2022-09-09T07:57:34;1.10;;;1.10;;
4290;SDS011;2159;50.906;7.152;2022-09-09T08:00:02;4.63;;;1.20;;
4290;SDS011;2159;50.906;7.152;2022-09-09T08:02:30;3.57;;;1.33;;
4290;SDS011;2159;50.906;7.152;2022-09-09T08:04:58;5.03;;;1.40;;
4290;SDS011;2159;50.906;7.152;2022-09-09T08:07:25;6.40;;;1.57;;
4290;SDS011;2159;50.906;7.152;2022-09-09T08:09:53;6.70;;;1.77;;
4290;SDS011;2159;50.906;7.152;2022-09-09T08:12:21;4.33;;;1.57;;
4290;SDS011;2159;50.906;7.152;2022-09-09T08:14:50;6.80;;;2.03;;
4290;SDS011;2159;50.906;7.152;2022-09-09T08:17:21;5.93;;;1.90;;
4290;SDS011;2159;50.906;7.152;2022-09-09T08:19:48;6.47;;;1.70;;
4290;SDS011;2159;50.906;7.152;2022-09-09T08:22:16;3.80;;;1.50;;
4290;SDS011;2159;50.906;7.152;2022-09-09T08:24:43;3.70;;;1.73;;
4290;SDS011;2159;50.906;7.152;2022-09-09T08:27:11;4.67;;;1.20;;
4290;SDS011;2159;50.906;7.152;2022-09-09T08:29:38;2.97;;;1.47;;
4290;SDS011;2159;50.906;7.152;2022-09-09T08:32:07;3.03;;;1.27;;
4290;SDS011;2159;50.906;7.152;2022-09-09T08:34:35;3.93;;;1.50;;
4290;SDS011;2159;50.906;7.152;2022-09-09T08:37:06;2.57;;;1.50;;
4290;SDS011;2159;50.906;7.152;2022-09-09T08:39:34;4.00;;;1.27;;
4290;SDS011;2159;50.906;7.152;2022-09-09T08:44:55;4.73;;;1.40;;
4290;SDS011;2159;50.906;7.152;2022-09-09T08:47:30;3.60;;;1.60;;
4290;SDS011;2159;50.906;7.152;2022-09-09T08:50:05;4.60;;;1.20;;
4290;SDS011;2159;50.906;7.152;2022-09-09T08:52:36;2.17;;;1.43;;
4290;SDS011;2159;50.906;7.152;2022-09-09T08:55:10;2.20;;;1.17;;
4290;SDS011;2159;50.906;7.152;2022-09-09T08:57:39;3.30;;;1.30;;
4290;SDS011;2159;50.906;7.152;2022-09-09T09:00:08;4.73;;;1.50;;
4290;SDS011;2159;50.906;7.152;2022-09-09T09:02:39;2.60;;;1.20;;
4290;SDS011;2159;50.906;7.152;2022-09-09T09:05:14;5.03;;;1.60;;
4290;SDS011;2159;50.906;7.152;2022-09-09T09:07:47;5.60;;;1.33;;
4290;SDS011;2159;50.906;7.152;2022-09-09T09:10:20;3.80;;;1.50;;
4290;SDS011;2159;50.906;7.152;2022-09-09T09:13:07;4.13;;;1.30;;
4290;SDS011;2159;50.906;7.152;2022-09-09T09:15:39;3.67;;;1.10;;
4290;SDS011;2159;50.906;7.152;2022-09-09T09:18:10;3.43;;;1.70;;
4290;SDS011;2159;50.906;7.152;2022-09-09T09:20:41;3.60;;;1.33;;
4290;SDS011;2159;50.906;7.152;2022-09-09T09:23:15;5.20;;;1.50;;
4290;SDS011;2159;50.906;7.152;2022-09-09T09:25:44;1.63;;;1.20;;
4290;SDS011;2159;50.906;7.152;2022-09-09T09:28:12;4.10;;;1.43;;
4290;SDS011;2159;50.906;7.152;2022-09-09T09:30:44;1.90;;;1.10;;
4290;SDS011;2159;50.906;7.152;2022-09-09T09:33:17;3.97;;;1.20;;
4290;SDS011;2159;50.906;7.152;2022-09-09T09:35:45;2.63;;;1.23;;
4290;SDS011;2159;50.906;7.152;2022-09-09T09:38:16;3.33;;;1.37;;
4290;SDS011;2159;50.906;7.152;2022-09-09T09:41:03;3.70;;;1.20;;
4290;SDS011;2159;50.906;7.152;2022-09-09T09:43:32;4.30;;;1.20;;
4290;SDS011;2159;50.906;7.152;2022-09-09T09:46:00;5.93;;;1.17;;
4290;SDS011;2159;50.906;7.152;2022-09-09T09:48:44;1.83;;;1.00;;
4290;SDS011;2159;50.906;7.152;2022-09-09T09:51:13;1.50;;;1.30;;
4290;SDS011;2159;50.906;7.152;2022-09-09T09:53:42;2.40;;;1.13;;
4290;SDS011;2159;50.906;7.152;2022-09-09T09:56:10;3.37;;;1.10;;
4290;SDS011;2159;50.906;7.152;2022-09-09T09:58:47;1.43;;;1.10;;
4290;SDS011;2159;50.906;7.152;2022-09-09T10:01:18;2.63;;;1.10;;
4290;SDS011;2159;50.906;7.152;2022-09-09T10:03:51;2.70;;;1.17;;
4290;SDS011;2159;50.906;7.152;2022-09-09T10:06:28;4.63;;;0.90;;
4290;SDS011;2159;50.906;7.152;2022-09-09T10:08:56;1.23;;;1.03;;
4290;SDS011;2159;50.906;7.152;2022-09-09T10:11:26;8.07;;;1.20;;
4290;SDS011;2159;50.906;7.152;2022-09-09T10:13:59;2.70;;;1.10;;
4290;SDS011;2159;50.906;7.152;2022-09-09T10:16:32;2.40;;;1.13;;
4290;SDS011;2159;50.906;7.152;2022-09-09T10:19:04;3.23;;;1.10;;
4290;SDS011;2159;50.906;7.152;2022-09-09T10:21:47;2.00;;;1.20;;
4290;SDS011;2159;50.906;7.152;2022-09-09T10:24:25;4.57;;;1.23;;
4290;SDS011;2159;50.906;7.152;2022-09-09T10:26:58;2.30;;;1.13;;
4290;SDS011;2159;50.906;7.152;2022-09-09T10:29:41;2.23;;;0.87;;
4290;SDS011;2159;50.906;7.152;2022-09-09T10:32:20;3.60;;;1.27;;
4290;SDS011;2159;50.906;7.152;2022-09-09T10:34:57;2.73;;;1.10;;
4290;SDS011;2159;50.906;7.152;2022-09-09T10:37:30;1.10;;;1.00;;
4290;SDS011;2159;50.906;7.152;2022-09-09T10:40:00;1.63;;;0.90;;
4290;SDS011;2159;50.906;7.152;2022-09-09T10:42:30;1.30;;;1.20;;
4290;SDS011;2159;50.906;7.152;2022-09-09T10:45:01;2.80;;;1.03;;
4290;SDS011;2159;50.906;7.152;2022-09-09T10:47:38;1.63;;;1.10;;
4290;SDS011;2159;50.906;7.152;2022-09-09T10:50:12;1.90;;;1.00;;
4290;SDS011;2159;50.906;7.152;2022-09-09T10:52:43;1.90;;;1.00;;
4290;SDS011;2159;50.906;7.152;2022-09-09T10:55:12;4.00;;;1.30;;
4290;SDS011;2159;50.906;7.152;2022-09-09T10:57:42;2.93;;;1.23;;
4290;SDS011;2159;50.906;7.152;2022-09-09T11:00:14;2.50;;;1.50;;
4290;SDS011;2159;50.906;7.152;2022-09-09T11:02:43;1.30;;;1.07;;
4290;SDS011;2159;50.906;7.152;2022-09-09T11:05:14;3.43;;;1.07;;
4290;SDS011;2159;50.906;7.152;2022-09-09T11:07:44;1.30;;;1.20;;
4290;SDS011;2159;50.906;7.152;2022-09-09T11:10:17;1.80;;;1.03;;
4290;SDS011;2159;50.906;7.152;2022-09-09T11:12:45;4.07;;;1.07;;
4290;SDS011;2159;50.906;7.152;2022-09-09T11:15:16;1.23;;;1.10;;
4290;SDS011;2159;50.906;7.152;2022-09-09T11:17:45;3.27;;;1.00;;
4290;SDS011;2159;50.906;7.152;2022-09-09T11:20:16;2.00;;;1.10;;
4290;SDS011;2159;50.906;7.152;2022-09-09T11:22:45;3.20;;;1.00;;
4290;SDS011;2159;50.906;7.152;2022-09-09T11:25:15;3.97;;;1.20;;
4290;SDS011;2159;50.906;7.152;2022-09-09T11:27:44;3.63;;;1.23;;
4290;SDS011;2159;50.906;7.152;2022-09-09T11:30:17;9.50;;;1.50;;
4290;SDS011;2159;50.906;7.152;2022-09-09T11:36:00;1.63;;;1.53;;
4290;SDS011;2159;50.906;7.152;2022-09-09T11:38:34;4.50;;;1.30;;
4290;SDS011;2159;50.906;7.152;2022-09-09T11:41:08;2.30;;;1.00;;
4290;SDS011;2159;50.906;7.152;2022-09-09T11:43:38;1.90;;;1.00;;
4290;SDS011;2159;50.906;7.152;2022-09-09T11:46:07;1.80;;;1.10;;
4290;SDS011;2159;50.906;7.152;2022-09-09T11:48:36;1.47;;;0.90;;
4290;SDS011;2159;50.906;7.152;2022-09-09T11:51:06;2.73;;;1.03;;
4290;SDS011;2159;50.906;7.152;2022-09-09T11:53:49;3.10;;;1.20;;
4290;SDS011;2159;50.906;7.152;2022-09-09T11:56:27;3.13;;;1.30;;
4290;SDS011;2159;50.906;7.152;2022-09-09T11:58:57;4.97;;;1.10;;
4290;SDS011;2159;50.906;7.152;2022-09-09T12:01:26;2.70;;;1.00;;
4290;SDS011;2159;50.906;7.152;2022-09-09T12:03:55;1.20;;;1.10;;
4290;SDS011;2159;50.906;7.152;2022-09-09T12:06:30;2.50;;;1.00;;
4290;SDS011;2159;50.906;7.152;2022-09-09T12:09:05;1.93;;;1.03;;
4290;SDS011;2159;50.906;7.152;2022-09-09T12:11:33;4.70;;;1.13;;
4290;SDS011;2159;50.906;7.152;2022-09-09T12:14:00;1.83;;;0.90;;
4290;SDS011;2159;50.906;7.152;2022-09-09T12:16:29;1.80;;;1.00;;
4290;SDS011;2159;50.906;7.152;2022-09-09T12:19:03;3.33;;;1.23;;
4290;SDS011;2159;50.906;7.152;2022-09-09T12:21:33;1.10;;;1.00;;
4290;SDS011;2159;50.906;7.152;2022-09-09T12:24:03;1.83;;;1.00;;
4290;SDS011;2159;50.906;7.152;2022-09-09T12:26:32;2.60;;;1.13;;
4290;SDS011;2159;50.906;7.152;2022-09-09T12:29:04;2.57;;;0.90;;
4290;SDS011;2159;50.906;7.152;2022-09-09T12:31:34;3.70;;;1.10;;
4290;SDS011;2159;50.906;7.152;2022-09-09T12:34:04;1.20;;;1.10;;
4290;SDS011;2159;50.906;7.152;2022-09-09T12:36:33;1.47;;;0.80;;
4290;SDS011;2159;50.906;7.152;2022-09-09T12:39:09;1.77;;;1.00;;
4290;SDS011;2159;50.906;7.152;2022-09-09T12:41:37;2.10;;;0.90;;
4290;SDS011;2159;50.906;7.152;2022-09-09T12:44:05;2.13;;;1.03;;
4290;SDS011;2159;50.906;7.152;2022-09-09T12:46:34;2.10;;;1.03;;
4290;SDS011;2159;50.906;7.152;2022-09-09T12:49:03;2.03;;;1.20;;
4290;SDS011;2159;50.906;7.152;2022-09-09T12:51:33;2.43;;;1.27;;
4290;SDS011;2159;50.906;7.152;2022-09-09T12:54:01;3.43;;;1.00;;
4290;SDS011;2159;50.906;7.152;2022-09-09T12:56:30;1.17;;;0.90;;
4290;SDS011;2159;50.906;7.152;2022-09-09T12:58:58;1.10;;;1.00;;
4290;SDS011;2159;50.906;7.152;2022-09-09T13:01:27;2.23;;;1.00;;
4290;SDS011;2159;50.906;7.152;2022-09-09T13:03:55;2.23;;;1.10;;
4290;SDS011;2159;50.906;7.152;2022-09-09T13:06:23;2.83;;;0.97;;
4290;SDS011;2159;50.906;7.152;2022-09-09T13:08:56;2.50;;;2.30;;
4290;SDS011;2159;50.906;7.152;2022-09-09T13:11:25;2.60;;;1.20;;
4290;SDS011;2159;50.906;7.152;2022-09-09T13:13:56;2.77;;;1.30;;
4290;SDS011;2159;50.906;7.152;2022-09-09T13:16:25;1.23;;;1.00;;
4290;SDS011;2159;50.906;7.152;2022-09-09T13:18:58;2.20;;;0.90;;
4290;SDS011;2159;50.906;7.152;2022-09-09T13:21:31;1.73;;;0.90;;
4290;SDS011;2159;50.906;7.152;2022-09-09T13:24:00;1.67;;;0.93;;
4290;SDS011;2159;50.906;7.152;2022-09-09T13:26:29;2.20;;;0.93;;
4290;SDS011;2159;50.906;7.152;2022-09-09T13:29:07;2.40;;;1.00;;
4290;SDS011;2159;50.906;7.152;2022-09-09T13:31:36;3.10;;;1.53;;
4290;SDS011;2159;50.906;7.152;2022-09-09T13:34:10;1.87;;;1.20;;
4290;SDS011;2159;50.906;7.152;2022-09-09T13:36:38;2.10;;;1.13;;
4290;SDS011;2159;50.906;7.152;2022-09-09T13:39:15;2.00;;;1.10;;
4290;SDS011;2159;50.906;7.152;2022-09-09T13:41:43;2.60;;;1.20;;
4290;SDS011;2159;50.906;7.152;2022-09-09T13:44:14;2.10;;;1.70;;
4290;SDS011;2159;50.906;7.152;2022-09-09T13:46:44;2.50;;;1.10;;
4290;SDS011;2159;50.906;7.152;2022-09-09T13:49:21;2.63;;;1.00;;
4290;SDS011;2159;50.906;7.152;2022-09-09T13:51:50;1.80;;;1.00;;
4290;SDS011;2159;50.906;7.152;2022-09-09T13:54:21;1.77;;;0.90;;
4290;SDS011;2159;50.906;7.152;2022-09-09T13:56:48;3.43;;;1.10;;
4290;SDS011;2159;50.906;7.152;2022-09-09T13:59:19;2.23;;;1.00;;
4290;SDS011;2159;50.906;7.152;2022-09-09T14:01:47;3.10;;;0.83;;
4290;SDS011;2159;50.906;7.152;2022-09-09T14:04:15;1.87;;;0.80;;
4290;SDS011;2159;50.906;7.152;2022-09-09T14:06:42;1.27;;;0.90;;
4290;SDS011;2159;50.906;7.152;2022-09-09T14:09:10;0.80;;;0.80;;
4290;SDS011;2159;50.906;7.152;2022-09-09T14:11:40;2.00;;;1.10;;
4290;SDS011;2159;50.906;7.152;2022-09-09T14:14:07;0.70;;;0.70;;
4290;SDS011;2159;50.906;7.152;2022-09-09T14:16:35;1.83;;;0.90;;
4290;SDS011;2159;50.906;7.152;2022-09-09T14:19:04;1.93;;;0.70;;
4290;SDS011;2159;50.906;7.152;2022-09-09T14:21:31;1.10;;;0.90;;
4290;SDS011;2159;50.906;7.152;2022-09-09T14:23:58;1.77;;;1.10;;
4290;SDS011;2159;50.906;7.152;2022-09-09T14:26:26;1.23;;;0.87;;
4290;SDS011;2159;50.906;7.152;2022-09-09T14:28:56;0.80;;;0.70;;
4290;SDS011;2159;50.906;7.152;2022-09-09T14:31:24;1.80;;;0.93;;
4290;SDS011;2159;50.906;7.152;2022-09-09T14:33:52;0.80;;;0.73;;
4290;SDS011;2159;50.906;7.152;2022-09-09T14:36:19;1.00;;;0.70;;
4290;SDS011;2159;50.906;7.152;2022-09-09T14:38:47;1.60;;;0.80;;
4290;SDS011;2159;50.906;7.152;2022-09-09T14:41:15;2.80;;;0.90;;
4290;SDS011;2159;50.906;7.152;2022-09-09T14:43:43;1.23;;;0.83;;
4290;SDS011;2159;50.906;7.152;2022-09-09T14:46:13;2.73;;;1.10;;
4290;SDS011;2159;50.906;7.152;2022-09-09T14:48:41;0.80;;;0.80;;
4290;SDS011;2159;50.906;7.152;2022-09-09T14:51:08;1.60;;;0.73;;
4290;SDS011;2159;50.906;7.152;2022-09-09T14:53:36;1.30;;;0.80;;
4290;SDS011;2159;50.906;7.152;2022-09-09T14:56:05;0.80;;;0.80;;
4290;SDS011;2159;50.906;7.152;2022-09-09T14:58:32;2.60;;;0.80;;
4290;SDS011;2159;50.906;7.152;2022-09-09T15:01:04;1.07;;;0.73;;
4290;SDS011;2159;50.906;7.152;2022-09-09T15:03:33;1.27;;;0.80;;
4290;SDS011;2159;50.906;7.152;2022-09-09T15:06:04;0.80;;;0.80;;
4290;SDS011;2159;50.906;7.152;2022-09-09T15:08:32;0.97;;;0.60;;
4290;SDS011;2159;50.906;7.152;2022-09-09T15:11:04;5.23;;;1.00;;
4290;SDS011;2159;50.906;7.152;2022-09-09T15:13:33;0.80;;;0.80;;
4290;SDS011;2159;50.906;7.152;2022-09-09T15:16:05;1.03;;;0.90;;
4290;SDS011;2159;50.906;7.152;2022-09-09T15:18:34;1.27;;;1.10;;
4290;SDS011;2159;50.906;7.152;2022-09-09T15:21:02;1.30;;;1.20;;
4290;SDS011;2159;50.906;7.152;2022-09-09T15:23:31;1.50;;;1.10;;
4290;SDS011;2159;50.906;7.152;2022-09-09T15:25:58;1.67;;;1.00;;
4290;SDS011;2159;50.906;7.152;2022-09-09T15:28:26;1.57;;;1.30;;
4290;SDS011;2159;50.906;7.152;2022-09-09T15:30:53;2.00;;;1.37;;
4290;SDS011;2159;50.906;7.152;2022-09-09T15:33:22;8.47;;;1.20;;
4290;SDS011;2159;50.906;7.152;2022-09-09T15:35:51;2.00;;;1.50;;
4290;SDS011;2159;50.906;7.152;2022-09-09T15:38:18;2.47;;;1.30;;
4290;SDS011;2159;50.906;7.152;2022-09-09T15:40:52;1.80;;;1.37;;